sensor_id;sensor_type;location;lat;lon;timestamp;pressure;altitude;pressure_sealevel;temperature;humidity
10476;BME280;26166;48.264;11.436;2023-12-20T00:02:31;96185.09;;;8.84;46.53
10476;BME280;26166;48.264;11.436;2023-12-20T00:05:32;96180.66;;;8.84;47.08
10476;BME280;26166;48.264;11.436;2023-12-20T00:08:32;96175.44;;;8.84;46.86
10476;BME280;26166;48.264;11.436;2023-12-20T00:11:32;96178.03;;;8.84;46.83
10476;BME280;26166;48.264;11.436;2023-12-20T00:14:32;96184.28;;;8.83;47.19
10476;BME280;26166;48.264;11.436;2023-12-20T00:17:32;96180.00;;;8.82;47.08
10476;BME280;26166;48.264;11.436;2023-12-20T00:20:33;96175.44;;;8.84;47.33
10476;BME280;26166;48.264;11.436;2023-12-20T00:23:33;96169.53;;;8.82;47.62
10476;BME280;26166;48.264;11.436;2023-12-20T00:26:33;96157.56;;;8.80;47.66
10476;BME280;26166;48.264;11.436;2023-12-20T00:29:34;96153.16;;;8.80;47.76
10476;BME280;26166;48.264;11.436;2023-12-20T00:32:34;96145.16;;;8.82;47.90
10476;BME280;26166;48.264;11.436;2023-12-20T00:35:35;96139.09;;;8.81;47.64
10476;BME280;26166;48.264;11.436;2023-12-20T00:38:35;96137.13;;;8.83;47.95
10476;BME280;26166;48.264;11.436;2023-12-20T00:41:35;96142.53;;;8.82;47.83
10476;BME280;26166;48.264;11.436;2023-12-20T00:44:35;96139.75;;;8.83;48.09
10476;BME280;26166;48.264;11.436;2023-12-20T00:47:36;96143.53;;;8.81;48.17
10476;BME280;26166;48.264;11.436;2023-12-20T00:50:36;96133.03;;;8.81;48.27
10476;BME280;26166;48.264;11.436;2023-12-20T00:53:36;96126.97;;;8.80;48.27
10476;BME280;26166;48.264;11.436;2023-12-20T00:56:36;96125.00;;;8.82;48.13
10476;BME280;26166;48.264;11.436;2023-12-20T00:59:36;96125.66;;;8.84;48.27
10476;BME280;26166;48.264;11.436;2023-12-20T01:02:37;96130.25;;;8.82;48.20
10476;BME280;26166;48.264;11.436;2023-12-20T01:05:37;96129.94;;;8.86;48.17
10476;BME280;26166;48.264;11.436;2023-12-20T01:08:37;96133.53;;;8.84;48.38
10476;BME280;26166;48.264;11.436;2023-12-20T01:11:37;96132.69;;;8.84;48.18
10476;BME280;26166;48.264;11.436;2023-12-20T01:14:37;96133.53;;;8.84;47.77
10476;BME280;26166;48.264;11.436;2023-12-20T01:17:39;96127.31;;;8.86;47.97
10476;BME280;26166;48.264;11.436;2023-12-20T01:20:39;96131.56;;;8.87;47.66
10476;BME280;26166;48.264;11.436;2023-12-20T01:23:40;96118.31;;;8.88;48.03
10476;BME280;26166;48.264;11.436;2023-12-20T01:26:40;96114.22;;;8.86;47.98
10476;BME280;26166;48.264;11.436;2023-12-20T01:29:40;96122.91;;;8.86;47.96
10476;BME280;26166;48.264;11.436;2023-12-20T01:32:40;96109.28;;;8.82;48.24
10476;BME280;26166;48.264;11.436;2023-12-20T01:35:40;96106.69;;;8.82;48.03
10476;BME280;26166;48.264;11.436;2023-12-20T01:38:41;96098.81;;;8.82;48.08
10476;BME280;26166;48.264;11.436;2023-12-20T01:41:42;96089.97;;;8.83;48.13
10476;BME280;26166;48.264;11.436;2023-12-20T01:44:42;96081.13;;;8.84;48.29
10476;BME280;26166;48.264;11.436;2023-12-20T01:47:42;96076.72;;;8.85;48.66
10476;BME280;26166;48.264;11.436;2023-12-20T01:50:44;96074.09;;;8.85;48.56
10476;BME280;26166;48.264;11.436;2023-12-20T01:53:45;96073.44;;;8.83;48.47
10476;BME280;26166;48.264;11.436;2023-12-20T01:56:45;96052.50;;;8.83;48.70
10476;BME280;26166;48.264;11.436;2023-12-20T01:59:46;96056.91;;;8.82;48.29
10476;BME280;26166;48.264;11.436;2023-12-20T02:02:46;96058.72;;;8.82;48.65
10476;BME280;26166;48.264;11.436;2023-12-20T02:05:47;96058.53;;;8.83;48.56
10476;BME280;26166;48.264;11.436;2023-12-20T02:08:48;96041.19;;;8.82;48.93
10476;BME280;26166;48.264;11.436;2023-12-20T02:11:49;96044.81;;;8.81;48.69
10476;BME280;26166;48.264;11.436;2023-12-20T02:14:50;96047.44;;;8.81;48.76
10476;BME280;26166;48.264;11.436;2023-12-20T02:17:50;96042.00;;;8.83;48.86
10476;BME280;26166;48.264;11.436;2023-12-20T02:20:51;96036.13;;;8.81;49.01
10476;BME280;26166;48.264;11.436;2023-12-20T02:23:51;96030.72;;;8.82;49.04
10476;BME280;26166;48.264;11.436;2023-12-20T02:26:51;96037.09;;;8.80;49.28
10476;BME280;26166;48.264;11.436;2023-12-20T02:29:51;96031.03;;;8.79;49.51
10476;BME280;26166;48.264;11.436;2023-12-20T02:32:51;96043.16;;;8.80;49.65
10476;BME280;26166;48.264;11.436;2023-12-20T02:35:52;96026.78;;;8.78;49.30
10476;BME280;26166;48.264;11.436;2023-12-20T02:38:52;96018.94;;;8.78;49.63
10476;BME280;26166;48.264;11.436;2023-12-20T02:41:52;96010.91;;;8.80;49.55
10476;BME280;26166;48.264;11.436;2023-12-20T02:44:53;96010.09;;;8.79;49.52
10476;BME280;26166;48.264;11.436;2023-12-20T02:47:53;96007.31;;;8.81;49.57
10476;BME280;26166;48.264;11.436;2023-12-20T02:50:53;96008.13;;;8.81;49.57
10476;BME280;26166;48.264;11.436;2023-12-20T02:53:54;96015.19;;;8.81;49.81
10476;BME280;26166;48.264;11.436;2023-12-20T02:56:54;96023.84;;;8.81;50.01
10476;BME280;26166;48.264;11.436;2023-12-20T02:59:54;96024.00;;;8.80;50.18
10476;BME280;26166;48.264;11.436;2023-12-20T03:02:55;96024.81;;;8.80;50.33
10476;BME280;26166;48.264;11.436;2023-12-20T03:05:55;96018.63;;;8.81;50.47
10476;BME280;26166;48.264;11.436;2023-12-20T03:08:55;96017.81;;;8.81;50.69
10476;BME280;26166;48.264;11.436;2023-12-20T03:11:55;96017.63;;;8.82;50.95
10476;BME280;26166;48.264;11.436;2023-12-20T03:14:55;96023.84;;;8.81;51.06
10476;BME280;26166;48.264;11.436;2023-12-20T03:17:56;96022.88;;;8.82;51.73
10476;BME280;26166;48.264;11.436;2023-12-20T03:20:56;96036.78;;;8.83;51.80
10476;BME280;26166;48.264;11.436;2023-12-20T03:23:56;96039.41;;;8.83;52.37
10476;BME280;26166;48.264;11.436;2023-12-20T03:26:56;96042.84;;;8.83;52.47
10476;BME280;26166;48.264;11.436;2023-12-20T03:29:56;96052.50;;;8.83;52.74
10476;BME280;26166;48.264;11.436;2023-12-20T03:32:57;96050.69;;;8.83;53.23
10476;BME280;26166;48.264;11.436;2023-12-20T03:35:57;96061.34;;;8.82;53.48
10476;BME280;26166;48.264;11.436;2023-12-20T03:38:57;96067.38;;;8.82;53.57
10476;BME280;26166;48.264;11.436;2023-12-20T03:41:57;96072.47;;;8.84;53.87
10476;BME280;26166;48.264;11.436;2023-12-20T03:44:57;96074.09;;;8.85;54.00
10476;BME280;26166;48.264;11.436;2023-12-20T03:47:57;96081.13;;;8.84;54.27
10476;BME280;26166;48.264;11.436;2023-12-20T03:50:57;96091.59;;;8.84;54.58
10476;BME280;26166;48.264;11.436;2023-12-20T03:53:58;96085.72;;;8.82;54.72
10476;BME280;26166;48.264;11.436;2023-12-20T03:56:58;96074.44;;;8.82;54.95
10476;BME280;26166;48.264;11.436;2023-12-20T03:59:58;96071.00;;;8.81;55.62
10476;BME280;26166;48.264;11.436;2023-12-20T04:02:58;96081.47;;;8.81;55.89
10476;BME280;26166;48.264;11.436;2023-12-20T04:05:58;96077.06;;;8.82;56.67
10476;BME280;26166;48.264;11.436;2023-12-20T04:08:59;96084.75;;;8.83;56.63
10476;BME280;26166;48.264;11.436;2023-12-20T04:11:59;96075.91;;;8.84;57.01
10476;BME280;26166;48.264;11.436;2023-12-20T04:14:59;96068.84;;;8.85;57.07
10476;BME280;26166;48.264;11.436;2023-12-20T04:17:59;96075.41;;;8.81;57.64
10476;BME280;26166;48.264;11.436;2023-12-20T04:20:59;96069.16;;;8.74;58.10
10476;BME280;26166;48.264;11.436;2023-12-20T04:24:00;96081.09;;;8.68;58.45
10476;BME280;26166;48.264;11.436;2023-12-20T04:27:00;96078.97;;;8.64;59.03
10476;BME280;26166;48.264;11.436;2023-12-20T04:30:00;96081.06;;;8.60;59.28
10476;BME280;26166;48.264;11.436;2023-12-20T04:33:01;96087.31;;;8.59;59.55
10476;BME280;26166;48.264;11.436;2023-12-20T04:36:02;96082.19;;;8.57;59.69
10476;BME280;26166;48.264;11.436;2023-12-20T04:39:03;96079.59;;;8.57;59.88
10476;BME280;26166;48.264;11.436;2023-12-20T04:42:03;96089.25;;;8.57;60.25
10476;BME280;26166;48.264;11.436;2023-12-20T04:45:03;96095.16;;;8.59;60.21
10476;BME280;26166;48.264;11.436;2023-12-20T04:48:04;96102.50;;;8.55;60.44
10476;BME280;26166;48.264;11.436;2023-12-20T04:51:04;96103.78;;;8.51;60.98
10476;BME280;26166;48.264;11.436;2023-12-20T04:54:06;96104.59;;;8.52;61.17
10476;BME280;26166;48.264;11.436;2023-12-20T04:57:06;96111.78;;;8.50;61.48
10476;BME280;26166;48.264;11.436;2023-12-20T05:00:06;96112.94;;;8.47;61.70
10476;BME280;26166;48.264;11.436;2023-12-20T05:03:08;96120.47;;;8.50;61.66
10476;BME280;26166;48.264;11.436;2023-12-20T05:06:09;96112.47;;;8.52;61.67
10476;BME280;26166;48.264;11.436;2023-12-20T05:09:09;96120.00;;;8.55;61.81
10476;BME280;26166;48.264;11.436;2023-12-20T05:12:10;96127.34;;;8.51;61.99
10476;BME280;26166;48.264;11.436;2023-12-20T05:15:10;96129.97;;;8.51;62.62
10476;BME280;26166;48.264;11.436;2023-12-20T05:18:10;96131.44;;;8.54;62.24
10476;BME280;26166;48.264;11.436;2023-12-20T05:21:10;96122.94;;;8.52;62.31
10476;BME280;26166;48.264;11.436;2023-12-20T05:24:11;96128.16;;;8.52;62.63
10476;BME280;26166;48.264;11.436;2023-12-20T05:27:11;96131.78;;;8.51;62.70
10476;BME280;26166;48.264;11.436;2023-12-20T05:30:11;96139.63;;;8.51;62.89
10476;BME280;26166;48.264;11.436;2023-12-20T05:33:11;96137.00;;;8.51;62.96
10476;BME280;26166;48.264;11.436;2023-12-20T05:36:12;96143.06;;;8.51;62.96
10476;BME280;26166;48.264;11.436;2023-12-20T05:39:13;96148.44;;;8.50;63.22
10476;BME280;26166;48.264;11.436;2023-12-20T05:42:13;96150.41;;;8.48;63.41
10476;BME280;26166;48.264;11.436;2023-12-20T05:45:14;96153.84;;;8.48;63.33
10476;BME280;26166;48.264;11.436;2023-12-20T05:48:14;96151.38;;;8.47;63.60
10476;BME280;26166;48.264;11.436;2023-12-20T05:51:15;96160.06;;;8.47;63.32
10476;BME280;26166;48.264;11.436;2023-12-20T05:54:15;96158.41;;;8.46;63.68
10476;BME280;26166;48.264;11.436;2023-12-20T05:57:15;96162.00;;;8.45;63.74
10476;BME280;26166;48.264;11.436;2023-12-20T06:00:15;96182.78;;;8.47;63.74
10476;BME280;26166;48.264;11.436;2023-12-20T06:03:16;96178.53;;;8.46;63.48
10476;BME280;26166;48.264;11.436;2023-12-20T06:06:16;96180.31;;;8.45;63.72
10476;BME280;26166;48.264;11.436;2023-12-20T06:09:17;96182.78;;;8.47;63.47
10476;BME280;26166;48.264;11.436;2023-12-20T06:12:17;96191.63;;;8.46;63.60
10476;BME280;26166;48.264;11.436;2023-12-20T06:15:17;96192.44;;;8.46;63.39
10476;BME280;26166;48.264;11.436;2023-12-20T06:18:18;96198.81;;;8.44;63.50
10476;BME280;26166;48.264;11.436;2023-12-20T06:21:18;96204.03;;;8.44;63.74
10476;BME280;26166;48.264;11.436;2023-12-20T06:24:21;96214.50;;;8.44;63.39
10476;BME280;26166;48.264;11.436;2023-12-20T06:27:22;96216.47;;;8.42;63.42
10476;BME280;26166;48.264;11.436;2023-12-20T06:30:22;96222.53;;;8.42;63.28
10476;BME280;26166;48.264;11.436;2023-12-20T06:33:23;96228.56;;;8.43;63.21
10476;BME280;26166;48.264;11.436;2023-12-20T06:36:23;96234.63;;;8.43;63.13
10476;BME280;26166;48.264;11.436;2023-12-20T06:39:24;96225.78;;;8.44;63.21
10476;BME280;26166;48.264;11.436;2023-12-20T06:42:24;96226.31;;;8.48;63.04
10476;BME280;26166;48.264;11.436;2023-12-20T06:45:24;96228.28;;;8.46;62.93
10476;BME280;26166;48.264;11.436;2023-12-20T06:48:25;96218.91;;;8.43;62.83
10476;BME280;26166;48.264;11.436;2023-12-20T06:51:25;96231.19;;;8.43;62.95
10476;BME280;26166;48.264;11.436;2023-12-20T06:54:25;96240.97;;;8.41;62.91
10476;BME280;26166;48.264;11.436;2023-12-20T06:57:25;96245.25;;;8.42;62.68
10476;BME280;26166;48.264;11.436;2023-12-20T07:00:26;96255.72;;;8.42;62.76
10476;BME280;26166;48.264;11.436;2023-12-20T07:03:26;96264.41;;;8.42;62.70
10476;BME280;26166;48.264;11.436;2023-12-20T07:06:26;96263.88;;;8.39;62.66
10476;BME280;26166;48.264;11.436;2023-12-20T07:09:27;96269.13;;;8.39;62.73
10476;BME280;26166;48.264;11.436;2023-12-20T07:12:27;96272.56;;;8.39;62.71
10476;BME280;26166;48.264;11.436;2023-12-20T07:15:28;96275.16;;;8.39;62.62
10476;BME280;26166;48.264;11.436;2023-12-20T07:18:29;96277.78;;;8.39;62.75
10476;BME280;26166;48.264;11.436;2023-12-20T07:21:29;96276.97;;;8.39;62.69
10476;BME280;26166;48.264;11.436;2023-12-20T07:24:29;96292.69;;;8.39;62.65
10476;BME280;26166;48.264;11.436;2023-12-20T07:27:30;96283.84;;;8.40;62.66
10476;BME280;26166;48.264;11.436;2023-12-20T07:30:30;96287.59;;;8.37;62.67
10476;BME280;26166;48.264;11.436;2023-12-20T07:33:30;96292.84;;;8.37;62.73
10476;BME280;26166;48.264;11.436;2023-12-20T07:36:30;96294.59;;;8.37;62.88
10476;BME280;26166;48.264;11.436;2023-12-20T07:39:30;96293.66;;;8.38;62.75
10476;BME280;26166;48.264;11.436;2023-12-20T07:42:31;96286.47;;;8.40;62.66
10476;BME280;26166;48.264;11.436;2023-12-20T07:45:31;96290.31;;;8.35;62.76
10476;BME280;26166;48.264;11.436;2023-12-20T07:48:31;96293.09;;;8.34;62.87
10476;BME280;26166;48.264;11.436;2023-12-20T07:51:31;96299.00;;;8.36;62.95
10476;BME280;26166;48.264;11.436;2023-12-20T07:54:32;96299.00;;;8.36;62.74
10476;BME280;26166;48.264;11.436;2023-12-20T07:57:32;96302.75;;;8.33;63.12
10476;BME280;26166;48.264;11.436;2023-12-20T08:00:32;96307.69;;;8.37;63.07
10476;BME280;26166;48.264;11.436;2023-12-20T08:03:32;96312.06;;;8.36;63.10
10476;BME280;26166;48.264;11.436;2023-12-20T08:06:32;96317.22;;;8.38;63.13
10476;BME280;26166;48.264;11.436;2023-12-20T08:09:33;96317.22;;;8.38;63.25
10476;BME280;26166;48.264;11.436;2023-12-20T08:12:41;96325.06;;;8.38;63.08
10476;BME280;26166;48.264;11.436;2023-12-20T08:15:41;96325.06;;;8.38;63.16
10476;BME280;26166;48.264;11.436;2023-12-20T08:18:42;96329.47;;;8.37;63.10
10476;BME280;26166;48.264;11.436;2023-12-20T08:21:42;96326.31;;;8.33;63.34
10476;BME280;26166;48.264;11.436;2023-12-20T08:24:42;96333.88;;;8.37;63.36
10476;BME280;26166;48.264;11.436;2023-12-20T08:27:43;96328.63;;;8.37;63.08
10476;BME280;26166;48.264;11.436;2023-12-20T08:30:43;96328.63;;;8.37;62.96
10476;BME280;26166;48.264;11.436;2023-12-20T08:33:43;96329.47;;;8.37;63.27
10476;BME280;26166;48.264;11.436;2023-12-20T08:36:44;96335.78;;;8.34;63.14
10476;BME280;26166;48.264;11.436;2023-12-20T08:39:44;96326.16;;;8.35;63.21
10476;BME280;26166;48.264;11.436;2023-12-20T08:42:44;96333.34;;;8.33;63.34
10476;BME280;26166;48.264;11.436;2023-12-20T08:45:45;96331.25;;;8.37;63.44
10476;BME280;26166;48.264;11.436;2023-12-20T08:48:45;96338.69;;;8.31;63.46
10476;BME280;26166;48.264;11.436;2023-12-20T08:51:45;96340.38;;;8.32;63.58
10476;BME280;26166;48.264;11.436;2023-12-20T08:54:45;96335.28;;;8.31;63.51
10476;BME280;26166;48.264;11.436;2023-12-20T08:57:45;96335.28;;;8.31;63.39
10476;BME280;26166;48.264;11.436;2023-12-20T09:00:45;96331.25;;;8.37;63.42
10476;BME280;26166;48.264;11.436;2023-12-20T09:03:46;96328.75;;;8.35;63.61
10476;BME280;26166;48.264;11.436;2023-12-20T09:06:46;96326.31;;;8.33;63.53
10476;BME280;26166;48.264;11.436;2023-12-20T09:09:46;96328.91;;;8.33;63.72
10476;BME280;26166;48.264;11.436;2023-12-20T09:12:46;96326.00;;;8.37;63.64
10476;BME280;26166;48.264;11.436;2023-12-20T09:15:47;96321.72;;;8.35;63.68
10476;BME280;26166;48.264;11.436;2023-12-20T09:18:48;96333.75;;;8.38;63.54
10476;BME280;26166;48.264;11.436;2023-12-20T09:21:48;96337.16;;;8.39;63.62
10476;BME280;26166;48.264;11.436;2023-12-20T09:24:48;96332.09;;;8.37;63.53
10476;BME280;26166;48.264;11.436;2023-12-20T09:27:48;96322.44;;;8.38;63.81
10476;BME280;26166;48.264;11.436;2023-12-20T09:30:50;96328.50;;;8.38;63.61
10476;BME280;26166;48.264;11.436;2023-12-20T09:33:50;96333.56;;;8.40;63.79
10476;BME280;26166;48.264;11.436;2023-12-20T09:36:51;96343.06;;;8.41;63.76
10476;BME280;26166;48.264;11.436;2023-12-20T09:39:51;96329.03;;;8.42;63.81
10476;BME280;26166;48.264;11.436;2023-12-20T09:46:02;96323.63;;;8.43;63.73
10476;BME280;26166;48.264;11.436;2023-12-20T09:49:05;96334.25;;;8.42;63.81
10476;BME280;26166;48.264;11.436;2023-12-20T09:52:06;96338.81;;;8.40;63.99
10476;BME280;26166;48.264;11.436;2023-12-20T09:55:07;96318.38;;;8.43;64.04
10476;BME280;26166;48.264;11.436;2023-12-20T09:58:08;96314.78;;;8.44;63.85
10476;BME280;26166;48.264;11.436;2023-12-20T10:01:08;96311.53;;;8.42;64.22
10476;BME280;26166;48.264;11.436;2023-12-20T10:04:09;96310.69;;;8.42;64.15
10476;BME280;26166;48.264;11.436;2023-12-20T10:07:12;96309.03;;;8.41;64.27
10476;BME280;26166;48.264;11.436;2023-12-20T10:10:13;96308.22;;;8.40;64.44
10476;BME280;26166;48.264;11.436;2023-12-20T10:13:13;96307.41;;;8.40;64.60
10476;BME280;26166;48.264;11.436;2023-12-20T10:16:13;96305.19;;;8.35;64.89
10476;BME280;26166;48.264;11.436;2023-12-20T10:19:16;96303.16;;;8.39;64.81
10476;BME280;26166;48.264;11.436;2023-12-20T10:22:16;96306.28;;;8.42;64.47
10476;BME280;26166;48.264;11.436;2023-12-20T10:25:16;96307.91;;;8.43;64.53
10476;BME280;26166;48.264;11.436;2023-12-20T10:35:20;96297.28;;;8.45;64.78
10476;BME280;26166;48.264;11.436;2023-12-20T10:38:21;96288.63;;;8.44;65.01
10476;BME280;26166;48.264;11.436;2023-12-20T10:41:27;96287.81;;;8.44;64.98
10476;BME280;26166;48.264;11.436;2023-12-20T10:44:27;96291.09;;;8.46;64.83
10476;BME280;26166;48.264;11.436;2023-12-20T10:47:28;96284.06;;;8.46;64.78
10476;BME280;26166;48.264;11.436;2023-12-20T10:50:31;96286.00;;;8.44;65.09
10476;BME280;26166;48.264;11.436;2023-12-20T10:53:31;96289.44;;;8.45;65.04
10476;BME280;26166;48.264;11.436;2023-12-20T10:56:33;96289.13;;;8.48;64.98
10476;BME280;26166;48.264;11.436;2023-12-20T10:59:38;96288.31;;;8.47;64.86
10476;BME280;26166;48.264;11.436;2023-12-20T11:02:39;96278.31;;;8.43;64.92
10476;BME280;26166;48.264;11.436;2023-12-20T11:05:49;96286.97;;;8.43;65.01
10476;BME280;26166;48.264;11.436;2023-12-20T11:08:52;96273.72;;;8.45;65.08
10476;BME280;26166;48.264;11.436;2023-12-20T11:15:17;96268.66;;;8.43;65.09
10476;BME280;26166;48.264;11.436;2023-12-20T11:18:17;96265.88;;;8.45;65.19
10476;BME280;26166;48.264;11.436;2023-12-20T11:21:18;96258.53;;;8.48;65.15
10476;BME280;26166;48.264;11.436;2023-12-20T11:24:21;96254.13;;;8.49;65.08
10476;BME280;26166;48.264;11.436;2023-12-20T11:27:21;96257.44;;;8.51;64.82
10476;BME280;26166;48.264;11.436;2023-12-20T11:30:23;96245.97;;;8.52;65.02
10476;BME280;26166;48.264;11.436;2023-12-20T11:33:24;96253.81;;;8.52;64.81
10476;BME280;26166;48.264;11.436;2023-12-20T11:36:25;96240.75;;;8.52;64.77
10476;BME280;26166;48.264;11.436;2023-12-20T11:39:26;96229.28;;;8.53;64.87
10476;BME280;26166;48.264;11.436;2023-12-20T11:42:27;96239.09;;;8.51;64.94
10476;BME280;26166;48.264;11.436;2023-12-20T11:45:27;96232.19;;;8.50;65.11
10476;BME280;26166;48.264;11.436;2023-12-20T11:48:27;96232.06;;;8.51;64.91
10476;BME280;26166;48.264;11.436;2023-12-20T11:51:28;96227.47;;;8.53;64.81
10476;BME280;26166;48.264;11.436;2023-12-20T11:54:29;96234.22;;;8.56;64.58
10476;BME280;26166;48.264;11.436;2023-12-20T11:57:30;96220.81;;;8.59;64.48
10476;BME280;26166;48.264;11.436;2023-12-20T12:00:30;96226.06;;;8.59;64.54
10476;BME280;26166;48.264;11.436;2023-12-20T12:03:31;96238.31;;;8.58;64.54
10476;BME280;26166;48.264;11.436;2023-12-20T12:06:31;96246.16;;;8.58;64.22
10476;BME280;26166;48.264;11.436;2023-12-20T12:09:31;96239.16;;;8.59;64.36
10476;BME280;26166;48.264;11.436;2023-12-20T12:12:32;96244.53;;;8.57;64.44
10476;BME280;26166;48.264;11.436;2023-12-20T12:15:32;96243.72;;;8.57;64.50
10476;BME280;26166;48.264;11.436;2023-12-20T12:18:33;96232.41;;;8.56;64.30
10476;BME280;26166;48.264;11.436;2023-12-20T12:21:33;96226.06;;;8.59;63.84
10476;BME280;26166;48.264;11.436;2023-12-20T12:24:33;96232.25;;;8.58;64.11
10476;BME280;26166;48.264;11.436;2023-12-20T12:27:34;96233.06;;;8.58;63.97
10476;BME280;26166;48.264;11.436;2023-12-20T12:30:34;96224.72;;;8.55;63.96
10476;BME280;26166;48.264;11.436;2023-12-20T12:33:34;96224.03;;;8.53;63.89
10476;BME280;26166;48.264;11.436;2023-12-20T12:36:35;96216.06;;;8.54;63.94
10476;BME280;26166;48.264;11.436;2023-12-20T12:39:35;96211.63;;;8.55;63.65
10476;BME280;26166;48.264;11.436;2023-12-20T12:42:36;96226.66;;;8.53;63.55
10476;BME280;26166;48.264;11.436;2023-12-20T12:45:36;96209.03;;;8.55;63.48
10476;BME280;26166;48.264;11.436;2023-12-20T12:48:39;96209.97;;;8.54;63.34
10476;BME280;26166;48.264;11.436;2023-12-20T12:51:39;96217.19;;;8.52;62.80
10476;BME280;26166;48.264;11.436;2023-12-20T12:54:40;96224.69;;;8.47;63.10
10476;BME280;26166;48.264;11.436;2023-12-20T12:57:41;96230.72;;;8.47;62.94
10476;BME280;26166;48.264;11.436;2023-12-20T13:00:41;96240.38;;;8.47;63.07
10476;BME280;26166;48.264;11.436;2023-12-20T13:03:42;96232.66;;;8.45;62.90
10476;BME280;26166;48.264;11.436;2023-12-20T13:06:42;96233.50;;;8.46;62.77
10476;BME280;26166;48.264;11.436;2023-12-20T13:09:42;96240.69;;;8.44;62.70
10476;BME280;26166;48.264;11.436;2023-12-20T13:12:43;96238.22;;;8.42;62.82
10476;BME280;26166;48.264;11.436;2023-12-20T13:15:43;96242.31;;;8.45;62.65
10476;BME280;26166;48.264;11.436;2023-12-20T13:18:50;96246.72;;;8.44;62.32
10476;BME280;26166;48.264;11.436;2023-12-20T13:21:50;96244.28;;;8.43;62.17
10476;BME280;26166;48.264;11.436;2023-12-20T13:24:51;96237.09;;;8.45;62.03
10476;BME280;26166;48.264;11.436;2023-12-20T13:27:51;96243.13;;;8.45;61.90
10476;BME280;26166;48.264;11.436;2023-12-20T13:30:51;96246.44;;;8.47;61.84
10476;BME280;26166;48.264;11.436;2023-12-20T13:33:51;96243.97;;;8.46;61.63
10476;BME280;26166;48.264;11.436;2023-12-20T13:36:52;96236.78;;;8.48;61.61
10476;BME280;26166;48.264;11.436;2023-12-20T13:39:52;96240.03;;;8.42;61.78
10476;BME280;26166;48.264;11.436;2023-12-20T13:42:52;96244.13;;;8.44;61.55
10476;BME280;26166;48.264;11.436;2023-12-20T13:45:53;96249.50;;;8.43;61.65
10476;BME280;26166;48.264;11.436;2023-12-20T13:48:53;96253.78;;;8.44;61.41
10476;BME280;26166;48.264;11.436;2023-12-20T13:51:53;96257.06;;;8.46;61.31
10476;BME280;26166;48.264;11.436;2023-12-20T13:54:54;96262.97;;;8.48;61.19
10476;BME280;26166;48.264;11.436;2023-12-20T13:57:55;96264.59;;;8.49;60.94
10476;BME280;26166;48.264;11.436;2023-12-20T14:00:56;96260.19;;;8.49;60.91
10476;BME280;26166;48.264;11.436;2023-12-20T14:03:56;96265.75;;;8.46;60.58
10476;BME280;26166;48.264;11.436;2023-12-20T14:06:57;96271.78;;;8.47;60.60
10476;BME280;26166;48.264;11.436;2023-12-20T14:09:57;96271.78;;;8.47;60.28
10476;BME280;26166;48.264;11.436;2023-12-20T14:12:59;96280.47;;;8.47;59.97
10476;BME280;26166;48.264;11.436;2023-12-20T14:15:59;96278.00;;;8.46;59.75
10476;BME280;26166;48.264;11.436;2023-12-20T14:19:00;96269.19;;;8.47;59.67
10476;BME280;26166;48.264;11.436;2023-12-20T14:22:03;96274.41;;;8.47;59.60
10476;BME280;26166;48.264;11.436;2023-12-20T14:25:04;96275.22;;;8.47;59.58
10476;BME280;26166;48.264;11.436;2023-12-20T14:28:05;96282.28;;;8.47;59.21
10476;BME280;26166;48.264;11.436;2023-12-20T14:31:06;96278.84;;;8.46;59.20
10476;BME280;26166;48.264;11.436;2023-12-20T14:34:06;96281.59;;;8.45;59.09
10476;BME280;26166;48.264;11.436;2023-12-20T14:37:06;96284.06;;;8.46;59.01
10476;BME280;26166;48.264;11.436;2023-12-20T14:40:07;96276.22;;;8.46;58.62
10476;BME280;26166;48.264;11.436;2023-12-20T14:43:11;96272.91;;;8.44;59.01
10476;BME280;26166;48.264;11.436;2023-12-20T14:46:11;96277.16;;;8.45;58.94
10476;BME280;26166;48.264;11.436;2023-12-20T14:49:11;96272.91;;;8.44;58.86
10476;BME280;26166;48.264;11.436;2023-12-20T14:52:11;96275.06;;;8.49;58.96
10476;BME280;26166;48.264;11.436;2023-12-20T14:55:12;96277.56;;;8.50;58.55
10476;BME280;26166;48.264;11.436;2023-12-20T14:58:12;96271.63;;;8.48;58.71
10476;BME280;26166;48.264;11.436;2023-12-20T15:01:12;96275.22;;;8.47;58.47
10476;BME280;26166;48.264;11.436;2023-12-20T15:04:15;96280.31;;;8.49;58.56
10476;BME280;26166;48.264;11.436;2023-12-20T15:07:16;96295.88;;;8.50;58.50
10476;BME280;26166;48.264;11.436;2023-12-20T15:10:17;96284.56;;;8.50;58.37
10476;BME280;26166;48.264;11.436;2023-12-20T15:13:17;96279.50;;;8.48;58.26
10476;BME280;26166;48.264;11.436;2023-12-20T15:16:17;96280.81;;;8.52;58.23
10476;BME280;26166;48.264;11.436;2023-12-20T15:19:17;96276.28;;;8.54;58.33
10476;BME280;26166;48.264;11.436;2023-12-20T15:22:18;96274.47;;;8.55;58.16
10476;BME280;26166;48.264;11.436;2023-12-20T15:25:18;96272.81;;;8.54;57.97
10476;BME280;26166;48.264;11.436;2023-12-20T15:28:21;96272.00;;;8.53;57.96
10476;BME280;26166;48.264;11.436;2023-12-20T15:31:22;96277.22;;;8.53;57.96
10476;BME280;26166;48.264;11.436;2023-12-20T15:34:26;96267.56;;;8.54;57.98
10476;BME280;26166;48.264;11.436;2023-12-20T15:37:26;96267.56;;;8.54;57.83
10476;BME280;26166;48.264;11.436;2023-12-20T15:40:27;96258.91;;;8.53;57.72
10476;BME280;26166;48.264;11.436;2023-12-20T15:43:27;96257.44;;;8.51;57.51
10476;BME280;26166;48.264;11.436;2023-12-20T15:46:27;96256.59;;;8.50;57.12
10476;BME280;26166;48.264;11.436;2023-12-20T15:49:28;96246.97;;;8.51;57.07
10476;BME280;26166;48.264;11.436;2023-12-20T15:52:28;96257.44;;;8.51;57.07
10476;BME280;26166;48.264;11.436;2023-12-20T15:55:28;96259.34;;;8.49;56.79
10476;BME280;26166;48.264;11.436;2023-12-20T15:58:31;96270.16;;;8.46;56.92
10476;BME280;26166;48.264;11.436;2023-12-20T16:01:31;96272.44;;;8.49;56.84
10476;BME280;26166;48.264;11.436;2023-12-20T16:04:31;96269.00;;;8.48;56.47
10476;BME280;26166;48.264;11.436;2023-12-20T16:07:32;96272.44;;;8.49;56.59
10476;BME280;26166;48.264;11.436;2023-12-20T16:10:32;96268.19;;;8.48;56.31